Time;durP1;ratioP1;P1;durP2;ratioP2;P2;SDS_P1;SDS_P2;PMS_P1;PMS_P2;Temp;Humidity;BMP_temperature;BMP_pressure;BME280_temperature;BME280_humidity;BME280_pressure;Samples;Min_cycle;Max_cycle;Signal;HPM_P1;HPM_P2
2023/03/01 00:01:18;;;;;;;6.53;3.40;;;;;;;-2.06;100.00;102255.13;5135420;28;20031;-72
2023/03/01 00:03:48;;;;;;;6.55;3.40;;;;;;;-1.83;100.00;102251.78;5122302;28;20089;-74
2023/03/01 00:06:20;;;;;;;7.78;3.55;;;;;;;-1.97;98.56;102255.47;5140342;28;20206;-73
2023/03/01 00:08:50;;;;;;;6.43;3.22;;;;;;;-2.05;99.50;102254.31;5140148;28;20113;-73
2023/03/01 00:11:29;;;;;;;6.38;3.40;;;;;;;-2.07;99.30;102250.81;5141952;28;20154;-72
2023/03/01 00:14:02;;;;;;;6.68;2.88;;;;;;;-2.15;99.51;102259.84;5140787;28;20512;-73
2023/03/01 00:16:35;;;;;;;5.75;3.10;;;;;;;-2.24;99.32;102256.00;5122275;28;20034;-73
2023/03/01 00:19:11;;;;;;;6.88;3.28;;;;;;;-2.15;100.00;102258.97;5140318;28;20035;-74
2023/03/01 00:21:41;;;;;;;9.57;3.30;;;;;;;-2.26;100.00;102261.09;5140428;28;20121;-74
2023/03/01 00:24:12;;;;;;;6.30;2.97;;;;;;;-2.00;100.00;102257.91;5122656;28;20037;-74
2023/03/01 00:26:42;;;;;;;8.43;3.53;;;;;;;-2.10;100.00;102250.69;5141514;28;20373;-74
2023/03/01 00:29:13;;;;;;;7.07;3.05;;;;;;;-2.17;100.00;102253.78;5140183;28;20031;-73
2023/03/01 00:31:43;;;;;;;8.02;2.95;;;;;;;-2.14;100.00;102245.38;5143560;28;20034;-73
2023/03/01 00:34:13;;;;;;;8.02;3.38;;;;;;;-2.24;100.00;102244.09;5149905;28;20018;-73
2023/03/01 00:36:44;;;;;;;6.90;3.25;;;;;;;-2.33;100.00;102248.81;5132314;28;20559;-73
2023/03/01 00:39:15;;;;;;;6.75;3.08;;;;;;;-2.42;100.00;102248.44;5150939;28;20030;-73
2023/03/01 00:41:45;;;;;;;6.95;3.15;;;;;;;-2.35;100.00;102247.88;5154118;28;20061;-73
2023/03/01 00:44:16;;;;;;;6.00;2.95;;;;;;;-2.40;100.00;102254.50;5156256;28;20073;-73
2023/03/01 00:46:46;;;;;;;9.70;3.22;;;;;;;-2.44;100.00;102250.06;5153127;28;20031;-73
2023/03/01 00:49:16;;;;;;;8.38;3.40;;;;;;;-2.21;100.00;102251.91;5156688;28;20034;-73
2023/03/01 00:51:46;;;;;;;8.10;2.95;;;;;;;-2.27;100.00;102241.41;5157867;28;20041;-75
2023/03/01 00:54:17;;;;;;;6.00;2.95;;;;;;;-2.37;100.00;102244.38;5141903;28;20027;-74
2023/03/01 00:56:47;;;;;;;6.50;3.38;;;;;;;-2.52;100.00;102248.84;5140156;28;20081;-73
2023/03/01 00:59:17;;;;;;;7.35;2.83;;;;;;;-2.54;100.00;102245.34;5138355;28;20038;-73
2023/03/01 01:01:48;;;;;;;7.65;3.40;;;;;;;-2.45;100.00;102253.44;5139680;28;20035;-72
2023/03/01 01:04:18;;;;;;;7.38;3.28;;;;;;;-2.52;100.00;102248.84;5140439;28;20034;-71
2023/03/01 01:06:48;;;;;;;6.47;3.53;;;;;;;-2.39;100.00;102246.00;5139914;28;20579;-73
2023/03/01 01:09:19;;;;;;;6.95;3.20;;;;;;;-2.44;99.45;102244.94;5140478;28;20440;-72
2023/03/01 01:11:50;;;;;;;7.15;3.28;;;;;;;-2.37;98.39;102239.28;5122469;28;20131;-73
2023/03/01 01:14:21;;;;;;;6.00;3.03;;;;;;;-2.65;99.83;102238.03;5133925;28;20022;-72
2023/03/01 01:16:51;;;;;;;6.70;3.00;;;;;;;-2.73;100.00;102234.22;5138316;28;20089;-72
2023/03/01 01:19:22;;;;;;;9.18;3.55;;;;;;;-2.65;100.00;102230.34;5138711;28;20026;-73
2023/03/01 01:21:52;;;;;;;7.55;2.88;;;;;;;-2.50;100.00;102229.31;5121288;28;20508;-72
2023/03/01 01:24:23;;;;;;;7.65;3.58;;;;;;;-2.49;100.00;102228.50;5139306;28;20041;-72
2023/03/01 01:26:53;;;;;;;6.53;3.15;;;;;;;-2.59;99.48;102226.38;5139510;28;20054;-73
2023/03/01 01:29:23;;;;;;;8.35;3.58;;;;;;;-2.70;100.00;102224.16;5136629;28;20030;-73
2023/03/01 01:31:54;;;;;;;5.95;2.88;;;;;;;-2.84;100.00;102218.41;5139216;28;20041;-73
2023/03/01 01:34:24;;;;;;;7.43;3.22;;;;;;;-2.86;100.00;102230.28;5139497;28;20026;-72
2023/03/01 01:36:54;;;;;;;7.13;3.05;;;;;;;-2.85;100.00;102226.03;5139680;28;20026;-73
2023/03/01 01:39:24;;;;;;;6.57;3.20;;;;;;;-2.80;100.00;102224.56;5140052;28;20026;-72
2023/03/01 01:41:55;;;;;;;7.75;3.55;;;;;;;-2.80;100.00;102219.44;5137063;28;20815;-72
2023/03/01 01:44:27;;;;;;;8.65;3.40;;;;;;;-2.91;100.00;102218.97;5138591;28;20121;-73
2023/03/01 01:47:10;;;;;;;9.05;3.33;;;;;;;-2.86;100.00;102220.03;5138966;28;20022;-72
2023/03/01 01:49:43;;;;;;;8.15;3.03;;;;;;;-2.99;100.00;102207.50;5138166;28;20049;-73
2023/03/01 01:52:18;;;;;;;7.35;3.50;;;;;;;-3.00;100.00;102213.44;5136631;28;20057;-72
2023/03/01 01:54:56;;;;;;;7.07;3.30;;;;;;;-2.82;100.00;102210.84;5117331;28;20101;-72
2023/03/01 01:57:32;;;;;;;6.60;3.17;;;;;;;-2.88;100.00;102211.44;5138375;28;20528;-72
2023/03/01 02:00:12;;;;;;;5.70;2.88;;;;;;;-2.75;100.00;102206.06;5137923;28;20038;-72
2023/03/01 02:02:45;;;;;;;6.45;3.10;;;;;;;-2.74;100.00;102204.34;5137250;28;20544;-73
2023/03/01 02:05:34;;;;;;;7.00;3.20;;;;;;;-2.76;100.00;102201.75;5121255;28;20035;-72
2023/03/01 02:08:05;;;;;;;8.95;3.67;;;;;;;-2.91;100.00;102208.75;5136494;28;20031;-72
2023/03/01 02:10:36;;;;;;;5.78;3.30;;;;;;;-3.13;100.00;102197.50;5139850;28;20034;-73
2023/03/01 02:13:07;;;;;;;9.10;3.97;;;;;;;-3.17;100.00;102201.56;5137929;28;20015;-72
2023/03/01 02:15:40;;;;;;;8.43;3.55;;;;;;;-3.25;100.00;102197.81;5137869;28;20046;-73
2023/03/01 02:18:16;;;;;;;7.10;3.75;;;;;;;-3.29;100.00;102198.50;5137207;28;20042;-73
2023/03/01 02:21:02;;;;;;;8.65;3.85;;;;;;;-3.31;100.00;102192.44;5134699;28;20373;-72
2023/03/01 02:23:33;;;;;;;12.05;4.47;;;;;;;-3.07;100.00;102177.28;5136138;28;20474;-72
2023/03/01 02:26:32;;;;;;;9.10;3.58;;;;;;;-3.24;100.00;102176.56;5137587;28;20035;-72
2023/03/01 02:29:05;;;;;;;8.98;3.55;;;;;;;-3.14;100.00;102176.19;5136300;28;20077;-72
2023/03/01 02:31:41;;;;;;;9.95;3.90;;;;;;;-3.10;100.00;102165.28;5120823;28;20022;-73
2023/03/01 02:34:16;;;;;;;8.10;3.42;;;;;;;-2.91;100.00;102164.38;5120519;28;20022;-73
2023/03/01 02:36:54;;;;;;;7.15;3.60;;;;;;;-2.96;100.00;102165.88;5138367;28;20484;-73
2023/03/01 02:39:33;;;;;;;8.73;3.97;;;;;;;-3.12;100.00;102166.00;5138525;28;20086;-72
2023/03/01 02:42:04;;;;;;;7.80;3.58;;;;;;;-3.11;100.00;102166.09;5137186;28;20034;-73
2023/03/01 02:44:34;;;;;;;10.65;4.03;;;;;;;-3.15;100.00;102161.66;5136860;28;20046;-73
2023/03/01 02:47:05;;;;;;;8.70;4.03;;;;;;;-3.30;100.00;102171.19;5137366;28;20310;-72
2023/03/01 02:49:37;;;;;;;6.93;3.80;;;;;;;-3.34;100.00;102156.50;5137263;28;20419;-72
2023/03/01 02:52:16;;;;;;;7.43;3.67;;;;;;;-3.15;100.00;102156.53;5136453;28;20022;-72
2023/03/01 02:54:54;;;;;;;7.35;3.45;;;;;;;-3.14;100.00;102149.72;5115622;28;20034;-73
2023/03/01 02:57:27;;;;;;;8.80;4.10;;;;;;;-3.18;100.00;102151.28;5122772;28;20400;-73
2023/03/01 03:00:06;;;;;;;12.45;6.63;;;;;;;-3.09;100.00;102144.03;5119294;28;20031;-72
2023/03/01 03:02:37;;;;;;;8.60;4.63;;;;;;;-3.21;100.00;102150.28;5136409;28;20035;-73
2023/03/01 03:05:11;;;;;;;11.10;4.50;;;;;;;-3.29;100.00;102143.94;5137369;28;20443;-72
2023/03/01 03:07:44;;;;;;;7.22;4.00;;;;;;;-3.23;100.00;102155.31;5134501;28;20045;-73
2023/03/01 03:10:39;;;;;;;11.17;4.63;;;;;;;-3.09;100.00;102149.13;5137250;28;20141;-72
2023/03/01 03:13:12;;;;;;;9.95;4.15;;;;;;;-3.19;100.00;102151.22;5135537;28;20035;-73
2023/03/01 03:15:43;;;;;;;8.38;4.22;;;;;;;-3.37;100.00;102148.69;5136912;28;20046;-73
2023/03/01 03:18:16;;;;;;;6.53;3.67;;;;;;;-3.05;100.00;102156.13;5136630;28;20034;-72
2023/03/01 03:20:47;;;;;;;6.97;3.42;;;;;;;-3.00;98.94;102153.78;5137369;28;20030;-72
2023/03/01 03:23:17;;;;;;;6.72;3.42;;;;;;;-3.16;98.18;102157.31;5132697;28;20041;-72
2023/03/01 03:25:49;;;;;;;6.68;3.42;;;;;;;-3.46;100.00;102160.19;5136296;28;20038;-72
2023/03/01 03:28:20;;;;;;;6.95;4.10;;;;;;;-3.63;100.00;102156.88;5134460;28;20392;-71
2023/03/01 03:30:50;;;;;;;7.88;3.40;;;;;;;-3.50;100.00;102168.53;5137691;28;20027;-73
2023/03/01 03:33:21;;;;;;;7.80;3.53;;;;;;;-3.69;100.00;102165.03;5135379;28;20421;-71
2023/03/01 03:35:51;;;;;;;10.20;3.72;;;;;;;-3.71;100.00;102162.44;5137590;28;20165;-72
2023/03/01 03:38:22;;;;;;;8.20;4.10;;;;;;;-3.81;100.00;102160.25;5141480;28;20034;-72
2023/03/01 03:41:04;;;;;;;11.40;4.70;;;;;;;-3.67;100.00;102159.22;5123560;28;20420;-73
2023/03/01 03:43:36;;;;;;;25.20;10.40;;;;;;;-3.67;100.00;102157.50;5121664;28;20552;-72
2023/03/01 03:46:07;;;;;;;28.50;13.13;;;;;;;-3.80;100.00;102153.47;5140967;28;20027;-72
2023/03/01 03:48:40;;;;;;;16.95;7.65;;;;;;;-3.74;100.00;102158.84;5140696;28;20065;-73
2023/03/01 03:51:15;;;;;;;10.82;5.00;;;;;;;-3.75;100.00;102155.41;5140577;28;20031;-73
2023/03/01 03:53:46;;;;;;;13.10;4.85;;;;;;;-3.71;100.00;102154.78;5142277;28;20072;-72
2023/03/01 03:56:16;;;;;;;7.50;3.90;;;;;;;-3.65;100.00;102161.84;5139385;28;20043;-73
2023/03/01 03:58:46;;;;;;;9.07;3.85;;;;;;;-3.73;100.00;102169.16;5139890;28;20114;-72
2023/03/01 04:01:16;;;;;;;8.40;3.55;;;;;;;-3.75;100.00;102154.56;5123136;28;20117;-73
2023/03/01 04:03:47;;;;;;;8.52;4.03;;;;;;;-3.54;100.00;102156.44;5139912;28;20403;-72
2023/03/01 04:06:17;;;;;;;8.75;3.55;;;;;;;-3.36;100.00;102154.69;5138845;28;20030;-72
2023/03/01 04:08:50;;;;;;;8.57;3.63;;;;;;;-3.32;100.00;102152.38;5140986;28;20548;-72
2023/03/01 04:11:27;;;;;;;8.52;3.72;;;;;;;-3.35;100.00;102154.75;5139410;28;20138;-70
2023/03/01 04:13:58;;;;;;;8.77;3.60;;;;;;;-3.73;98.79;102163.16;5139869;28;20049;-72
2023/03/01 04:16:29;;;;;;;6.90;3.55;;;;;;;-3.91;100.00;102159.75;5140742;28;20027;-73
2023/03/01 04:19:00;;;;;;;7.28;3.28;;;;;;;-3.71;100.00;102170.09;5139057;28;20412;-72
2023/03/01 04:21:30;;;;;;;9.15;3.53;;;;;;;-3.80;100.00;102166.25;5139964;28;20101;-73
2023/03/01 04:24:03;;;;;;;7.63;3.30;;;;;;;-3.83;100.00;102153.31;5140623;28;20515;-72
2023/03/01 04:26:33;;;;;;;10.07;3.60;;;;;;;-3.84;100.00;102156.66;5140514;28;20113;-72
2023/03/01 04:29:04;;;;;;;7.70;2.88;;;;;;;-3.81;100.00;102164.50;5139224;28;20142;-72
2023/03/01 04:31:35;;;;;;;5.40;2.80;;;;;;;-3.65;99.62;102166.97;5139661;28;20505;-72
2023/03/01 04:34:05;;;;;;;6.30;3.33;;;;;;;-3.75;99.29;102163.06;5139492;28;20019;-72
2023/03/01 04:36:36;;;;;;;6.70;3.00;;;;;;;-3.88;100.00;102162.44;5140678;28;20041;-73
2023/03/01 04:39:11;;;;;;;7.13;2.92;;;;;;;-3.73;100.00;102158.06;5139326;28;20332;-72
2023/03/01 04:41:43;;;;;;;7.75;3.13;;;;;;;-3.91;100.00;102162.28;5147185;28;20034;-72
2023/03/01 04:44:13;;;;;;;8.90;2.97;;;;;;;-4.05;100.00;102158.22;5143225;28;20070;-72
2023/03/01 04:46:43;;;;;;;8.40;3.05;;;;;;;-4.16;100.00;102159.38;5122904;28;20027;-72
2023/03/01 04:49:15;;;;;;;7.68;3.30;;;;;;;-4.07;100.00;102157.25;5137644;28;20116;-72
2023/03/01 04:51:46;;;;;;;6.97;3.15;;;;;;;-4.19;100.00;102154.09;5136960;28;20539;-72
2023/03/01 04:54:16;;;;;;;6.85;2.90;;;;;;;-4.15;100.00;102148.38;5137862;28;20018;-73
2023/03/01 04:56:46;;;;;;;7.25;2.85;;;;;;;-4.17;100.00;102152.50;5137821;28;20037;-72
2023/03/01 04:59:16;;;;;;;10.30;3.10;;;;;;;-4.10;100.00;102155.44;5139500;28;20393;-72
2023/03/01 05:01:47;;;;;;;11.32;3.33;;;;;;;-4.04;100.00;102154.84;5137786;28;20109;-70
2023/03/01 05:04:17;;;;;;;6.82;3.00;;;;;;;-3.91;100.00;102146.97;5136925;28;20443;-73
2023/03/01 05:06:48;;;;;;;5.85;2.78;;;;;;;-3.61;100.00;102150.16;5139482;28;20061;-70
2023/03/01 05:09:18;;;;;;;6.97;2.55;;;;;;;-3.77;97.42;102151.06;5128687;28;20113;-72
2023/03/01 05:11:49;;;;;;;7.28;3.03;;;;;;;-3.95;98.28;102142.53;5138962;28;20035;-72
2023/03/01 05:14:20;;;;;;;6.43;2.80;;;;;;;-4.10;100.00;102157.97;5139133;28;20030;-72
2023/03/01 05:16:50;;;;;;;7.20;2.90;;;;;;;-4.22;100.00;102139.56;5139496;28;20031;-72
2023/03/01 05:19:22;;;;;;;6.63;2.75;;;;;;;-4.26;100.00;102149.53;5138869;28;20105;-72
2023/03/01 05:22:01;;;;;;;6.75;3.00;;;;;;;-4.26;100.00;102145.28;5138759;28;20033;-69
2023/03/01 05:24:33;;;;;;;7.05;2.92;;;;;;;-4.24;100.00;102146.25;5139448;28;20485;-71
2023/03/01 05:27:04;;;;;;;6.25;2.95;;;;;;;-4.20;100.00;102149.81;5121749;28;20397;-71
2023/03/01 05:29:35;;;;;;;5.53;2.85;;;;;;;-4.17;100.00;102147.41;5138265;28;20085;-71
2023/03/01 05:32:05;;;;;;;6.85;3.28;;;;;;;-3.88;100.00;102142.00;5138605;28;20061;-72
2023/03/01 05:34:36;;;;;;;10.65;3.30;;;;;;;-4.16;100.00;102151.72;5138199;28;20030;-72
2023/03/01 05:37:07;;;;;;;13.10;3.28;;;;;;;-4.28;100.00;102146.03;5137427;28;20150;-72
2023/03/01 05:39:37;;;;;;;9.10;3.25;;;;;;;-4.17;100.00;102148.28;5139736;28;20035;-71
2023/03/01 05:42:11;;;;;;;7.18;3.40;;;;;;;-4.05;100.00;102137.78;5138058;28;20528;-70
2023/03/01 05:44:42;;;;;;;6.57;3.35;;;;;;;-3.98;100.00;102139.84;5111819;28;20177;-71
2023/03/01 05:47:12;;;;;;;6.40;3.03;;;;;;;-4.11;100.00;102138.38;5135619;28;20126;-69
2023/03/01 05:49:43;;;;;;;6.60;3.03;;;;;;;-3.91;100.00;102136.75;5139128;28;20469;-72
2023/03/01 05:52:13;;;;;;;8.00;3.15;;;;;;;-3.96;100.00;102136.53;5143209;28;20034;-71
2023/03/01 05:54:43;;;;;;;8.05;3.67;;;;;;;-4.02;99.42;102136.25;5139515;28;20030;-71
2023/03/01 05:57:14;;;;;;;7.38;3.08;;;;;;;-4.25;99.90;102141.06;5139776;28;20416;-71
2023/03/01 05:59:45;;;;;;;6.22;2.97;;;;;;;-4.20;100.00;102135.41;5138135;28;20027;-72
2023/03/01 06:02:15;;;;;;;6.47;3.60;;;;;;;-4.00;100.00;102126.09;5135859;28;20030;-72
2023/03/01 06:04:45;;;;;;;9.88;3.67;;;;;;;-4.10;100.00;102119.69;5137244;28;20085;-71
2023/03/01 06:07:16;;;;;;;8.43;3.58;;;;;;;-4.24;100.00;102119.84;5137893;28;20026;-72
2023/03/01 06:09:46;;;;;;;7.35;3.53;;;;;;;-4.05;100.00;102128.47;5138013;28;20034;-71
2023/03/01 06:12:17;;;;;;;6.28;3.45;;;;;;;-3.90;100.00;102133.41;5137793;28;20027;-72
2023/03/01 06:14:47;;;;;;;7.00;3.33;;;;;;;-4.18;100.00;102135.44;5135904;28;20027;-72
2023/03/01 06:17:18;;;;;;;6.05;3.15;;;;;;;-4.21;100.00;102133.66;5120164;28;20034;-71
2023/03/01 06:19:48;;;;;;;7.57;3.60;;;;;;;-4.25;100.00;102133.41;5138119;28;20038;-71
2023/03/01 06:22:18;;;;;;;9.02;3.53;;;;;;;-4.30;100.00;102130.63;5137072;28;20076;-72
2023/03/01 06:24:48;;;;;;;8.25;3.95;;;;;;;-4.18;100.00;102136.34;5121088;28;20081;-72
2023/03/01 06:27:19;;;;;;;7.93;3.67;;;;;;;-4.15;100.00;102140.72;5135150;28;20026;-72
2023/03/01 06:29:50;;;;;;;7.60;3.67;;;;;;;-3.96;100.00;102131.44;5136446;28;20037;-72
2023/03/01 06:32:20;;;;;;;7.15;3.15;;;;;;;-3.68;100.00;102126.81;5134982;28;20042;-72
2023/03/01 06:34:50;;;;;;;9.75;4.10;;;;;;;-3.89;100.00;102140.25;5136950;28;20061;-72
2023/03/01 06:37:21;;;;;;;9.80;3.58;;;;;;;-3.95;100.00;102138.28;5135359;28;20507;-72
2023/03/01 06:39:51;;;;;;;12.02;3.50;;;;;;;-3.95;100.00;102140.00;5137277;28;20030;-72
2023/03/01 06:42:21;;;;;;;7.13;3.13;;;;;;;-3.91;100.00;102137.66;5137721;28;20034;-72
2023/03/01 06:44:51;;;;;;;7.13;3.22;;;;;;;-4.06;100.00;102146.25;5136451;28;20030;-72
2023/03/01 06:47:22;;;;;;;7.15;2.97;;;;;;;-3.96;100.00;102136.53;5137379;28;20030;-72
2023/03/01 06:49:52;;;;;;;6.88;3.05;;;;;;;-3.89;100.00;102140.25;5136766;28;20114;-72
2023/03/01 06:52:22;;;;;;;10.30;3.97;;;;;;;-3.94;100.00;102139.19;5140564;28;20046;-72
2023/03/01 06:54:53;;;;;;;10.15;3.58;;;;;;;-3.71;100.00;102141.13;5136933;28;20299;-72
2023/03/01 06:57:23;;;;;;;5.88;3.20;;;;;;;-3.46;100.00;102135.53;5120364;28;20125;-71
2023/03/01 06:59:54;;;;;;;8.90;3.85;;;;;;;-3.63;100.00;102149.22;5137486;28;20041;-73
2023/03/01 07:02:24;;;;;;;8.55;3.78;;;;;;;-3.49;100.00;102144.72;5135150;28;20081;-70
2023/03/01 07:04:54;;;;;;;9.50;3.83;;;;;;;-3.38;100.00;102144.41;5136439;28;20484;-70
2023/03/01 07:07:25;;;;;;;8.25;3.83;;;;;;;-3.34;100.00;102146.28;5141723;28;20030;-69
2023/03/01 07:09:55;;;;;;;8.82;3.63;;;;;;;-3.20;100.00;102142.66;5137072;28;20041;-71
2023/03/01 07:12:26;;;;;;;7.97;3.47;;;;;;;-3.22;100.00;102134.06;5137448;28;20240;-72
2023/03/01 07:14:56;;;;;;;9.85;3.50;;;;;;;-3.21;100.00;102138.34;5137002;28;20114;-72
2023/03/01 07:17:26;;;;;;;8.55;3.47;;;;;;;-2.86;100.00;102122.88;5136761;28;20033;-73
2023/03/01 07:19:57;;;;;;;7.20;3.28;;;;;;;-2.87;100.00;102121.13;5140764;28;20030;-72
2023/03/01 07:22:27;;;;;;;10.20;3.83;;;;;;;-2.90;100.00;102120.09;5140037;28;20041;-72
2023/03/01 07:24:57;;;;;;;6.47;3.63;;;;;;;-2.87;100.00;102117.69;5136890;28;20071;-72
2023/03/01 07:27:27;;;;;;;8.27;4.03;;;;;;;-2.80;100.00;102112.03;5136911;28;20066;-72
2023/03/01 07:29:58;;;;;;;9.93;4.30;;;;;;;-2.49;100.00;102109.94;5136256;28;20031;-72
2023/03/01 07:32:28;;;;;;;11.18;4.57;;;;;;;-2.58;100.00;102105.31;5136435;28;20026;-71
2023/03/01 07:34:58;;;;;;;10.07;4.20;;;;;;;-0.92;100.00;102101.50;5137886;28;20080;-72
2023/03/01 07:37:29;;;;;;;9.10;3.47;;;;;;;0.53;92.68;102098.53;5141881;28;20369;-72
2023/03/01 07:39:59;;;;;;;6.22;2.95;;;;;;;3.28;83.94;102081.03;5140481;28;20034;-73
2023/03/01 07:42:29;;;;;;;6.40;2.78;;;;;;;4.74;78.91;102068.56;5136679;28;20042;-72
2023/03/01 07:44:59;;;;;;;6.00;2.70;;;;;;;5.47;64.07;102074.53;5137113;28;20264;-72
2023/03/01 07:47:30;;;;;;;4.72;2.53;;;;;;;5.91;70.25;102071.47;5136338;28;20042;-72
2023/03/01 07:50:01;;;;;;;5.43;2.92;;;;;;;7.46;60.51;102063.47;5125200;28;20118;-73
2023/03/01 07:52:31;;;;;;;9.35;3.95;;;;;;;8.31;63.08;102059.94;5138376;28;20030;-73
2023/03/01 07:55:02;;;;;;;7.20;3.17;;;;;;;6.98;60.37;102077.22;5136502;28;20027;-73
2023/03/01 07:57:32;;;;;;;7.85;3.55;;;;;;;9.58;57.57;102060.97;5136628;28;20295;-73
2023/03/01 08:00:03;;;;;;;6.20;3.47;;;;;;;10.72;56.01;102057.25;5136806;28;20076;-73
2023/03/01 08:02:33;;;;;;;7.80;3.55;;;;;;;10.82;54.78;102057.09;5135790;28;20391;-73
2023/03/01 08:05:04;;;;;;;6.07;2.88;;;;;;;10.05;56.13;102067.59;5136805;28;20073;-73
2023/03/01 08:07:34;;;;;;;7.47;3.20;;;;;;;9.87;54.53;102069.44;5135344;28;20031;-73
2023/03/01 08:10:05;;;;;;;7.70;3.80;;;;;;;8.57;55.31;102075.50;5140601;28;20041;-73
2023/03/01 08:12:36;;;;;;;7.55;3.38;;;;;;;6.51;62.31;102089.16;5119121;28;20081;-72
2023/03/01 08:15:07;;;;;;;6.60;3.50;;;;;;;7.05;61.46;102077.25;5136345;28;20516;-73
2023/03/01 08:17:37;;;;;;;6.72;3.25;;;;;;;8.06;61.94;102068.63;5135881;28;20131;-74
2023/03/01 08:20:09;;;;;;;6.57;3.58;;;;;;;8.58;58.66;102053.78;5146458;28;20061;-74
2023/03/01 08:22:39;;;;;;;8.10;3.83;;;;;;;8.70;57.51;102058.94;5146921;28;20027;-73
2023/03/01 08:25:09;;;;;;;7.43;3.47;;;;;;;9.08;57.63;102062.22;5142042;28;20369;-73
2023/03/01 08:27:40;;;;;;;5.25;3.17;;;;;;;8.28;60.21;102065.16;5142863;28;20503;-73
2023/03/01 08:30:11;;;;;;;5.38;2.97;;;;;;;8.79;56.74;102057.16;5137680;28;20038;-73
2023/03/01 08:32:41;;;;;;;5.97;3.33;;;;;;;8.41;58.41;102059.03;5137582;28;20023;-73
2023/03/01 08:35:11;;;;;;;6.57;2.95;;;;;;;11.42;54.76;102041.38;5140425;28;20026;-74
2023/03/01 08:37:42;;;;;;;6.07;2.83;;;;;;;11.69;51.76;102045.34;5143670;28;20053;-72
2023/03/01 08:40:13;;;;;;;7.28;3.22;;;;;;;13.13;50.87;102032.88;5135379;28;20107;-73
2023/03/01 08:42:43;;;;;;;6.15;3.30;;;;;;;13.08;50.21;102035.59;5138154;28;20027;-73
2023/03/01 08:45:17;;;;;;;6.13;2.83;;;;;;;12.43;49.66;102037.84;5139202;28;20522;-73
2023/03/01 08:47:52;;;;;;;5.45;2.78;;;;;;;12.38;50.00;102036.22;5138779;28;20042;-74
2023/03/01 08:50:24;;;;;;;6.03;3.00;;;;;;;11.62;49.65;102044.56;5147246;28;20030;-73
2023/03/01 08:52:54;;;;;;;7.40;2.90;;;;;;;9.79;54.92;102053.84;5147646;28;20065;-74
2023/03/01 08:55:24;;;;;;;7.40;2.90;;;;;;;10.60;52.40;102053.03;5144292;28;20488;-73
2023/03/01 08:57:55;;;;;;;6.10;2.85;;;;;;;10.39;52.90;102048.06;5137138;28;20121;-70
2023/03/01 09:00:25;;;;;;;6.07;2.92;;;;;;;12.31;49.94;102026.75;5139052;28;20507;-70
2023/03/01 09:02:56;;;;;;;4.82;2.50;;;;;;;12.21;48.74;102036.56;5138947;28;20042;-69
2023/03/01 09:05:26;;;;;;;5.70;2.95;;;;;;;9.87;53.73;102048.56;5140985;28;20030;-68
2023/03/01 09:07:57;;;;;;;8.93;3.00;;;;;;;9.78;53.57;102046.00;5147352;28;20030;-69
2023/03/01 09:10:27;;;;;;;4.78;2.60;;;;;;;10.34;53.18;102035.91;5134160;28;20026;-70
2023/03/01 09:12:57;;;;;;;9.23;3.10;;;;;;;10.19;53.45;102033.47;5134991;28;20030;-70
2023/03/01 09:15:28;;;;;;;7.32;3.17;;;;;;;9.14;55.14;102043.03;5154220;28;20116;-71
2023/03/01 09:17:58;;;;;;;5.30;2.95;;;;;;;6.67;61.78;102054.59;5151706;28;20027;-73
2023/03/01 09:20:31;;;;;;;4.45;2.35;;;;;;;7.34;61.69;102053.03;5149747;28;20381;-72
2023/03/01 09:23:01;;;;;;;6.72;3.05;;;;;;;6.27;63.05;102066.50;5148573;28;20117;-73
2023/03/01 09:25:31;;;;;;;7.65;2.90;;;;;;;6.98;64.37;102048.63;5154135;28;20487;-73
2023/03/01 09:28:02;;;;;;;7.88;2.92;;;;;;;5.57;68.35;102058.22;5151831;28;20037;-74
2023/03/01 09:30:32;;;;;;;8.00;3.17;;;;;;;4.15;74.13;102061.78;5153674;28;20113;-73
2023/03/01 09:33:02;;;;;;;6.03;2.90;;;;;;;5.62;69.66;102054.81;5152623;28;20050;-73
2023/03/01 09:35:33;;;;;;;9.35;3.63;;;;;;;5.04;70.54;102053.38;5149472;28;20494;-73
2023/03/01 09:38:03;;;;;;;8.13;3.10;;;;;;;5.10;69.50;102054.31;5144348;28;20031;-73
2023/03/01 09:40:33;;;;;;;8.38;3.28;;;;;;;5.15;70.33;102044.00;5148144;28;20555;-73
2023/03/01 09:43:21;;;;;;;6.65;3.22;;;;;;;5.00;72.29;102039.50;5146996;28;20066;-72
2023/03/01 09:45:54;;;;;;;5.82;2.88;;;;;;;5.55;68.98;102041.78;5148492;28;20028;-73
2023/03/01 09:48:27;;;;;;;7.53;2.70;;;;;;;5.35;70.50;102038.13;5147438;28;20030;-74
2023/03/01 09:50:58;;;;;;;6.63;2.88;;;;;;;4.90;70.95;102042.00;5130811;28;20112;-72
2023/03/01 09:53:34;;;;;;;8.27;2.90;;;;;;;5.13;69.60;102032.75;5140439;28;20097;-74
2023/03/01 09:56:18;;;;;;;6.22;2.80;;;;;;;5.19;68.77;102038.84;5143184;28;20105;-74
2023/03/01 09:58:58;;;;;;;6.70;3.15;;;;;;;5.82;71.04;102032.50;5148392;28;20395;-73
2023/03/01 10:01:32;;;;;;;6.03;3.20;;;;;;;6.15;69.21;102037.03;5146936;28;20037;-72
2023/03/01 10:04:34;;;;;;;7.10;2.80;;;;;;;5.12;70.63;102037.06;5129820;28;20095;-73
2023/03/01 10:07:10;;;;;;;5.72;2.63;;;;;;;5.51;66.10;102037.41;5132017;28;20070;-71
2023/03/01 10:09:44;;;;;;;7.68;2.67;;;;;;;5.39;67.29;102032.13;5146793;28;20027;-71
2023/03/01 10:12:23;;;;;;;5.28;2.67;;;;;;;5.16;63.40;102036.22;5137148;28;20023;-71
2023/03/01 10:14:57;;;;;;;6.30;2.70;;;;;;;4.95;62.75;102033.44;5134877;28;20208;-71
2023/03/01 10:17:35;;;;;;;5.68;2.70;;;;;;;4.75;63.71;102031.47;5119420;28;20027;-70
2023/03/01 10:20:13;;;;;;;5.43;2.83;;;;;;;4.72;64.15;102046.97;5120529;28;20341;-73
2023/03/01 10:22:48;;;;;;;4.63;2.20;;;;;;;4.50;62.91;102035.50;5136108;28;20031;-73
2023/03/01 10:25:33;;;;;;;;;;;;;;;4.52;63.96;102033.81;5138522;28;20033;-73
2023/03/01 10:28:48;;;;;;;5.22;2.42;;;;;;;4.70;65.66;102033.16;5122101;28;19925;-73
2023/03/01 10:31:27;;;;;;;6.30;2.45;;;;;;;4.78;63.79;102034.97;5123500;28;20077;-74
2023/03/01 10:33:58;;;;;;;4.95;2.10;;;;;;;4.62;64.20;102020.09;5137385;28;20037;-73
2023/03/01 10:36:33;;;;;;;7.03;2.40;;;;;;;4.58;64.77;102023.53;5139111;28;20054;-74
2023/03/01 10:39:12;;;;;;;5.57;2.60;;;;;;;4.63;64.84;102032.19;5144425;28;20409;-74
2023/03/01 10:42:05;;;;;;;6.93;2.63;;;;;;;4.75;65.19;102021.09;5136918;28;20370;-73
2023/03/01 10:44:41;;;;;;;5.63;2.63;;;;;;;5.13;64.82;102017.22;5136036;28;20039;-74
2023/03/01 10:47:20;;;;;;;6.18;2.40;;;;;;;4.77;64.67;102020.28;5122351;28;20031;-74
2023/03/01 10:49:59;;;;;;;8.18;2.65;;;;;;;4.79;65.13;102013.41;5145587;28;20113;-73
2023/03/01 10:52:33;;;;;;;5.65;2.42;;;;;;;4.94;65.70;102013.56;5137340;28;20034;-73
2023/03/01 10:55:41;;;;;;;5.40;2.53;;;;;;;4.75;63.98;102008.16;5136189;28;20035;-73
2023/03/01 10:58:14;;;;;;;5.07;2.28;;;;;;;4.72;64.41;102014.19;5139115;28;20027;-73
2023/03/01 11:00:47;;;;;;;3.80;2.08;;;;;;;5.02;64.77;102008.47;5118336;28;20287;-73
2023/03/01 11:03:21;;;;;;;8.38;2.70;;;;;;;4.99;67.48;102000.66;5136025;28;20522;-74
2023/03/01 11:06:06;;;;;;;7.65;2.78;;;;;;;5.27;69.15;102008.69;5139384;28;20045;-74
2023/03/01 11:08:42;;;;;;;8.00;3.00;;;;;;;5.48;67.77;102007.16;5140873;28;20054;-73
2023/03/01 11:11:15;;;;;;;5.47;2.35;;;;;;;5.29;64.20;101995.75;5119121;28;20057;-73
2023/03/01 11:13:56;;;;;;;8.35;2.50;;;;;;;5.22;67.57;101999.13;5117665;28;20049;-74
2023/03/01 11:16:29;;;;;;;5.70;2.90;;;;;;;5.29;66.69;102000.94;5136678;28;20376;-74
2023/03/01 11:19:21;;;;;;;5.03;2.47;;;;;;;5.26;64.33;101994.00;5136722;28;20035;-73
2023/03/01 11:22:16;;;;;;;7.60;2.50;;;;;;;5.31;63.07;101988.88;5131536;28;20517;-74
2023/03/01 11:24:49;;;;;;;9.05;2.80;;;;;;;5.39;64.43;101988.06;5133208;28;20107;-74
2023/03/01 11:27:32;;;;;;;6.55;3.08;;;;;;;5.49;69.26;101989.84;5138443;28;20109;-73
2023/03/01 11:30:21;;;;;;;4.30;2.13;;;;;;;5.46;63.77;101989.84;5119103;28;20046;-74
2023/03/01 11:32:57;;;;;;;9.32;2.53;;;;;;;5.27;62.99;101981.91;5116043;28;20026;-73
2023/03/01 11:35:29;;;;;;;4.72;2.50;;;;;;;5.22;63.27;101988.78;5138368;28;20411;-73
2023/03/01 11:38:15;;;;;;;5.50;2.10;;;;;;;5.09;63.02;101982.63;5126662;28;20400;-72
2023/03/01 11:41:05;;;;;;;4.53;2.30;;;;;;;5.16;63.94;101984.41;5133044;28;20547;-72
2023/03/01 11:43:53;;;;;;;5.10;2.30;;;;;;;5.43;62.87;101979.44;5136162;28;20049;-73
2023/03/01 11:46:32;;;;;;;5.28;2.22;;;;;;;5.38;62.64;101987.19;5135430;28;20093;-73
2023/03/01 11:49:21;;;;;;;5.55;2.15;;;;;;;5.39;61.55;101982.88;5136671;28;20034;-73